Time;durP1;ratioP1;P1;durP2;ratioP2;P2;SDS_P1;SDS_P2;PMS_P1;PMS_P2;Temp;Humidity;BMP_temperature;BMP_pressure;BME280_temperature;BME280_humidity;BME280_pressure;Samples;Min_cycle;Max_cycle;Signal;HPM_P1;HPM_P2
2022/08/16 00:02:00;;;;;;;;;;;21.40;99.90;;;;;;4998377;28;89593;-33
2022/08/16 00:04:27;;;;;;;14.48;13.00;;;21.30;99.90;;;;;;4999387;28;89061;-35
2022/08/16 00:06:53;;;;;;;15.45;13.93;;;21.30;99.90;;;;;;4998338;28;89101;-36
2022/08/16 00:09:19;;;;;;;16.10;14.13;;;21.30;99.90;;;;;;4996918;28;90608;-35
2022/08/16 00:11:48;;;;;;;14.38;12.90;;;21.20;99.90;;;;;;4998056;28;89721;-32
2022/08/16 00:14:22;;;;;;;14.77;13.32;;;21.10;99.90;;;;;;4997968;28;88700;-35
2022/08/16 00:16:48;;;;;;;16.50;14.98;;;21.00;99.90;;;;;;4999067;28;89520;-32
2022/08/16 00:19:19;;;;;;;15.40;13.95;;;20.90;99.90;;;;;;5000709;28;90610;-33
2022/08/16 00:21:45;;;;;;;16.95;15.25;;;20.80;99.90;;;;;;5000696;28;90910;-33
2022/08/16 00:24:12;;;;;;;15.15;13.75;;;20.80;99.90;;;;;;5038131;22;89032;-31
2022/08/16 00:26:42;;;;;;;16.98;15.38;;;20.70;99.90;;;;;;5001111;28;90663;-33
2022/08/16 00:29:08;;;;;;;17.60;15.80;;;20.70;99.90;;;;;;5001492;28;91262;-32
2022/08/16 00:31:35;;;;;;;16.00;14.30;;;20.70;99.90;;;;;;5000601;28;89753;-33
2022/08/16 00:34:01;;;;;;;22.40;14.77;;;20.60;99.90;;;;;;5001212;28;89833;-31
2022/08/16 00:36:27;;;;;;;17.48;15.75;;;20.60;99.90;;;;;;5001256;28;90042;-33
2022/08/16 00:38:53;;;;;;;16.55;14.85;;;20.60;99.90;;;;;;5000399;28;89495;-34
2022/08/16 00:41:19;;;;;;;15.40;13.85;;;20.60;99.90;;;;;;5001243;28;90346;-34
2022/08/16 00:43:45;;;;;;;15.10;13.27;;;20.50;99.90;;;;;;5000061;28;89365;-34
2022/08/16 00:46:10;;;;;;;17.38;15.68;;;20.40;99.90;;;;;;5000762;28;90357;-31
2022/08/16 00:48:37;;;;;;;19.30;17.25;;;20.50;99.90;;;;;;5000956;28;89617;-32
2022/08/16 00:51:03;;;;;;;16.08;14.65;;;20.40;99.90;;;;;;5000665;28;90069;-33
2022/08/16 00:53:29;;;;;;;19.80;14.23;;;20.40;99.90;;;;;;5000965;28;88186;-34
2022/08/16 00:55:59;;;;;;;17.90;16.02;;;20.40;99.90;;;;;;5000434;28;90393;-33
2022/08/16 00:58:27;;;;;;;18.05;16.05;;;20.40;99.90;;;;;;4998956;28;93277;-34
2022/08/16 01:00:54;;;;;;;18.30;16.25;;;20.40;99.90;;;;;;5000700;28;89930;-33
2022/08/16 01:03:22;;;;;;;21.08;18.17;;;20.40;99.90;;;;;;4986708;28;89647;-35
2022/08/16 01:05:47;;;;;;;;;;;20.40;99.90;;;;;;5000632;28;90027;-31
2022/08/16 01:08:17;;;;;;;18.08;16.42;;;20.30;99.90;;;;;;5000920;28;90642;-33
2022/08/16 01:10:43;;;;;;;20.67;18.63;;;20.30;99.90;;;;;;4999988;28;91306;-33
2022/08/16 01:13:13;;;;;;;19.85;17.98;;;20.30;99.90;;;;;;5000396;28;88241;-31
2022/08/16 01:15:44;;;;;;;19.50;17.42;;;20.30;99.90;;;;;;4999936;28;90582;-36
2022/08/16 01:18:15;;;;;;;21.00;18.00;;;20.20;99.90;;;;;;4999843;28;89036;-33
2022/08/16 01:20:49;;;;;;;19.40;17.55;;;20.20;99.90;;;;;;5000019;28;88464;-33
2022/08/16 01:23:31;;;;;;;17.55;15.98;;;20.20;99.90;;;;;;5000116;28;90226;-33
2022/08/16 01:25:58;;;;;;;23.35;17.15;;;20.20;99.90;;;;;;5000003;28;90744;-32
2022/08/16 01:28:26;;;;;;;19.73;17.73;;;20.20;99.90;;;;;;4999587;28;89663;-33
2022/08/16 01:30:55;;;;;;;19.10;15.88;;;20.10;99.90;;;;;;5000801;28;89685;-33
2022/08/16 01:33:21;;;;;;;22.63;18.40;;;20.10;99.90;;;;;;4999771;28;89141;-32
2022/08/16 01:35:57;;;;;;;20.20;18.20;;;20.10;99.90;;;;;;5000006;28;90248;-31
2022/08/16 01:38:39;;;;;;;20.80;18.90;;;20.10;99.90;;;;;;5000355;28;90176;-33
2022/08/16 01:41:09;;;;;;;21.60;19.30;;;20.20;99.90;;;;;;4999869;28;90323;-31
2022/08/16 01:43:38;;;;;;;24.30;21.83;;;20.20;99.90;;;;;;4998378;28;87954;-34
2022/08/16 01:46:16;;;;;;;24.25;21.30;;;20.20;99.90;;;;;;4999713;28;90454;-33
2022/08/16 01:48:42;;;;;;;23.58;21.23;;;20.20;99.90;;;;;;4999501;28;89553;-35
2022/08/16 01:51:08;;;;;;;26.10;21.13;;;20.20;99.90;;;;;;5000527;28;89942;-32
2022/08/16 01:53:34;;;;;;;22.55;20.20;;;20.30;99.90;;;;;;4999374;28;89456;-35
2022/08/16 01:55:59;;;;;;;22.27;20.17;;;20.30;99.90;;;;;;4998745;28;88743;-35
2022/08/16 01:58:25;;;;;;;25.05;19.95;;;20.30;99.90;;;;;;4998885;28;90533;-34
2022/08/16 02:00:51;;;;;;;20.75;18.67;;;20.30;99.90;;;;;;4999814;28;90535;-32
2022/08/16 02:03:17;;;;;;;19.27;17.27;;;20.30;99.90;;;;;;4999643;28;89008;-32
2022/08/16 02:05:42;;;;;;;21.20;19.17;;;20.30;99.90;;;;;;4998999;28;90341;-33
2022/08/16 02:08:08;;;;;;;22.30;20.17;;;20.30;99.90;;;;;;4999707;28;89670;-35
2022/08/16 02:10:35;;;;;;;21.35;19.33;;;20.30;99.90;;;;;;4999488;28;89579;-33
2022/08/16 02:13:04;;;;;;;20.85;18.50;;;20.40;99.90;;;;;;4999471;28;89493;-32
2022/08/16 02:15:32;;;;;;;21.42;19.13;;;20.40;99.90;;;;;;4998641;28;90173;-33
2022/08/16 02:17:59;;;;;;;27.70;18.47;;;20.40;99.90;;;;;;4999722;28;89532;-33
2022/08/16 02:20:27;;;;;;;17.30;15.55;;;20.40;99.90;;;;;;4999995;28;90000;-33
2022/08/16 02:22:53;;;;;;;;;;;20.50;99.90;;;;;;5000030;28;89300;-33
2022/08/16 02:25:18;;;;;;;19.27;17.27;;;20.40;99.90;;;;;;5000429;28;89340;-33
2022/08/16 02:27:45;;;;;;;24.55;18.33;;;20.50;99.90;;;;;;4999393;28;90061;-31
2022/08/16 02:30:16;;;;;;;20.92;18.35;;;20.50;99.90;;;;;;4999237;28;89368;-34
2022/08/16 02:32:43;;;;;;;25.55;19.85;;;20.40;99.90;;;;;;4999529;28;87626;-33
2022/08/16 02:35:09;;;;;;;19.98;17.83;;;20.40;99.90;;;;;;4998800;28;90378;-32
2022/08/16 02:37:34;;;;;;;22.52;19.40;;;20.40;99.90;;;;;;4997932;28;90106;-33
2022/08/16 02:40:00;;;;;;;19.17;17.08;;;20.40;99.90;;;;;;4997935;28;90125;-31
2022/08/16 02:42:26;;;;;;;21.17;18.08;;;20.40;99.90;;;;;;4999670;28;90139;-32
2022/08/16 02:44:51;;;;;;;21.00;18.95;;;20.30;99.90;;;;;;4999020;28;91044;-33
2022/08/16 02:47:17;;;;;;;23.13;19.40;;;20.30;99.90;;;;;;4998660;28;91448;-35
2022/08/16 02:49:42;;;;;;;22.33;20.08;;;20.30;99.90;;;;;;4998805;28;90378;-34
2022/08/16 02:52:09;;;;;;;22.08;17.92;;;20.30;99.90;;;;;;4998294;28;89351;-31
2022/08/16 02:54:35;;;;;;;20.23;18.13;;;20.30;99.90;;;;;;4996143;28;90731;-33
2022/08/16 02:57:01;;;;;;;19.00;17.05;;;20.30;99.90;;;;;;4998909;28;89772;-33
2022/08/16 02:59:27;;;;;;;18.55;16.75;;;20.30;99.90;;;;;;4998421;28;89612;-36
2022/08/16 03:01:52;;;;;;;19.08;16.92;;;20.30;99.90;;;;;;4998806;28;89969;-31
2022/08/16 03:04:18;;;;;;;21.88;18.83;;;20.30;99.90;;;;;;4998408;28;88833;-32
2022/08/16 03:06:44;;;;;;;22.23;19.83;;;20.30;99.90;;;;;;4998965;28;90156;-32
2022/08/16 03:09:10;;;;;;;19.48;17.48;;;20.30;99.90;;;;;;4998668;28;89236;-33
2022/08/16 03:11:35;;;;;;;19.92;18.02;;;20.30;99.90;;;;;;4998269;28;90594;-34
2022/08/16 03:14:01;;;;;;;17.52;15.82;;;20.30;99.90;;;;;;4997614;28;90482;-31
2022/08/16 03:16:27;;;;;;;17.98;16.13;;;20.30;99.90;;;;;;4997990;28;89734;-33
2022/08/16 03:18:53;;;;;;;21.52;18.33;;;20.20;99.90;;;;;;4998706;28;89552;-36
2022/08/16 03:21:20;;;;;;;24.90;17.38;;;20.20;99.90;;;;;;4998025;28;88175;-32
2022/08/16 03:23:45;;;;;;;18.73;17.13;;;20.20;99.90;;;;;;4997790;28;89308;-32
2022/08/16 03:26:12;;;;;;;18.05;16.30;;;20.20;99.90;;;;;;4998729;28;90265;-33
2022/08/16 03:28:39;;;;;;;19.63;17.90;;;20.10;99.90;;;;;;4997807;28;90035;-32
2022/08/16 03:31:05;;;;;;;22.70;19.55;;;20.10;99.90;;;;;;4998820;28;89385;-33
2022/08/16 03:33:32;;;;;;;21.42;19.02;;;20.10;99.90;;;;;;4998012;28;90241;-33
2022/08/16 03:35:58;;;;;;;21.42;19.17;;;20.10;99.90;;;;;;4997653;28;90800;-34
2022/08/16 03:38:26;;;;;;;21.55;18.88;;;20.00;99.90;;;;;;4997583;28;90236;-36
2022/08/16 03:40:53;;;;;;;21.95;19.63;;;20.00;99.90;;;;;;4998746;28;89778;-32
2022/08/16 03:43:18;;;;;;;25.40;18.13;;;20.00;99.90;;;;;;4998010;28;90016;-35
2022/08/16 03:45:44;;;;;;;17.80;16.00;;;20.00;99.90;;;;;;4997973;28;89595;-31
2022/08/16 03:48:10;;;;;;;23.33;18.77;;;19.90;99.90;;;;;;4998269;28;89992;-36
2022/08/16 03:50:36;;;;;;;18.20;16.30;;;19.90;99.90;;;;;;4997127;28;88246;-35
2022/08/16 03:53:03;;;;;;;22.30;19.40;;;19.90;99.90;;;;;;5001198;28;90107;-34
2022/08/16 03:55:29;;;;;;;22.10;19.85;;;19.80;99.90;;;;;;5000898;28;90189;-32
2022/08/16 03:57:54;;;;;;;19.67;17.73;;;19.80;99.90;;;;;;5001466;28;89935;-33
2022/08/16 04:00:24;;;;;;;21.02;18.42;;;19.70;99.90;;;;;;5001662;28;90350;-34
2022/08/16 04:02:52;;;;;;;19.98;17.83;;;19.70;99.90;;;;;;5001103;28;90336;-33
2022/08/16 04:05:18;;;;;;;22.65;20.23;;;19.60;99.90;;;;;;5001248;28;90231;-32
2022/08/16 04:07:43;;;;;;;21.23;19.13;;;19.60;99.90;;;;;;5000869;28;90871;-32
2022/08/16 04:10:11;;;;;;;23.75;19.90;;;19.60;99.90;;;;;;5001948;28;89145;-34
2022/08/16 04:12:38;;;;;;;23.95;19.38;;;19.60;99.90;;;;;;5001961;28;89112;-31
2022/08/16 04:15:06;;;;;;;23.05;20.83;;;19.60;99.90;;;;;;5000171;28;89581;-33
2022/08/16 04:17:32;;;;;;;;;;;19.60;99.90;;;;;;5000963;28;91246;-33
2022/08/16 04:19:58;;;;;;;21.48;19.17;;;19.50;99.90;;;;;;5003845;28;89383;-32
2022/08/16 04:22:24;;;;;;;24.20;21.02;;;19.50;99.90;;;;;;5000996;28;89201;-32
2022/08/16 04:24:50;;;;;;;28.27;19.70;;;19.50;99.90;;;;;;5000209;28;90608;-33
2022/08/16 04:27:16;;;;;;;25.50;21.70;;;19.50;99.90;;;;;;5000785;28;90362;-32
2022/08/16 04:29:41;;;;;;;22.02;19.13;;;19.50;99.90;;;;;;5000284;28;88048;-32
2022/08/16 04:32:07;;;;;;;21.00;18.95;;;19.40;99.90;;;;;;5000740;28;89965;-34
2022/08/16 04:34:36;;;;;;;22.42;20.13;;;19.40;99.90;;;;;;5000762;28;89517;-33
2022/08/16 04:37:02;;;;;;;24.88;20.40;;;19.20;99.90;;;;;;5000940;28;89801;-32
2022/08/16 04:39:30;;;;;;;22.58;20.38;;;19.10;99.90;;;;;;5000861;28;89725;-33
2022/08/16 04:41:56;;;;;;;20.70;18.70;;;19.00;99.90;;;;;;5000987;28;89196;-32
2022/08/16 04:44:22;;;;;;;24.95;20.17;;;18.90;99.90;;;;;;5000262;28;89606;-32
2022/08/16 04:46:48;;;;;;;21.80;19.35;;;18.80;99.90;;;;;;5000462;28;89548;-33
2022/08/16 04:49:14;;;;;;;20.92;18.77;;;18.80;99.90;;;;;;5000871;28;89481;-32
2022/08/16 04:51:42;;;;;;;23.02;18.15;;;18.80;99.90;;;;;;5000323;28;90234;-32
2022/08/16 04:54:08;;;;;;;21.25;18.35;;;18.80;99.90;;;;;;5000319;28;89664;-32
2022/08/16 04:56:34;;;;;;;20.35;18.27;;;18.80;99.90;;;;;;5000778;28;90136;-32
2022/08/16 04:59:00;;;;;;;21.58;19.10;;;18.80;99.90;;;;;;5000781;28;89333;-33
2022/08/16 05:01:26;;;;;;;34.17;21.95;;;18.80;99.90;;;;;;5000557;28;90292;-33
2022/08/16 05:03:52;;;;;;;28.80;22.38;;;18.90;99.90;;;;;;4999599;28;89912;-34
2022/08/16 05:06:18;;;;;;;23.27;20.55;;;18.90;99.90;;;;;;5001083;28;89808;-36
2022/08/16 05:08:43;;;;;;;30.15;21.67;;;19.00;99.90;;;;;;5000945;28;89054;-33
2022/08/16 05:11:11;;;;;;;23.48;20.63;;;19.00;99.90;;;;;;5000279;28;90058;-31
2022/08/16 05:13:39;;;;;;;25.10;22.20;;;19.00;99.90;;;;;;5000350;28;91113;-32
2022/08/16 05:16:08;;;;;;;25.98;21.10;;;19.10;99.90;;;;;;5002340;28;90678;-32
2022/08/16 05:18:35;;;;;;;25.88;20.80;;;19.20;99.90;;;;;;5001045;28;89265;-35
2022/08/16 05:21:00;;;;;;;24.92;22.30;;;19.40;99.90;;;;;;5000333;28;90384;-31
2022/08/16 05:23:26;;;;;;;29.35;22.23;;;19.50;99.90;;;;;;4999411;28;89589;-32
2022/08/16 05:25:51;;;;;;;22.75;20.48;;;19.60;99.90;;;;;;5000115;28;89429;-32
2022/08/16 05:28:17;;;;;;;27.75;24.13;;;19.80;99.90;;;;;;4998981;28;88448;-32
2022/08/16 05:30:43;;;;;;;24.42;20.98;;;19.80;99.90;;;;;;5000084;28;90747;-33
2022/08/16 05:33:10;;;;;;;27.27;22.15;;;19.90;99.90;;;;;;4999498;28;90089;-31
2022/08/16 05:35:35;;;;;;;25.38;22.70;;;20.00;99.90;;;;;;5000165;28;89041;-32
2022/08/16 05:38:01;;;;;;;27.85;23.90;;;20.10;99.90;;;;;;5000059;28;89905;-32
2022/08/16 05:40:27;;;;;;;27.88;24.08;;;20.10;99.90;;;;;;4998503;28;90750;-34
2022/08/16 05:42:52;;;;;;;28.25;23.92;;;20.20;99.90;;;;;;5000359;28;90000;-33
2022/08/16 05:45:18;;;;;;;26.50;23.13;;;20.30;99.90;;;;;;4999301;28;89204;-32
2022/08/16 05:47:44;;;;;;;27.50;23.38;;;20.30;99.90;;;;;;5000010;28;88925;-34
2022/08/16 05:50:10;;;;;;;26.15;21.17;;;20.40;99.90;;;;;;5000003;28;88965;-32
2022/08/16 05:52:35;;;;;;;22.67;20.38;;;20.40;99.90;;;;;;4998538;28;90331;-33
2022/08/16 05:55:01;;;;;;;28.98;21.80;;;20.40;99.90;;;;;;5000010;28;89604;-33
2022/08/16 05:57:27;;;;;;;26.35;20.73;;;20.40;99.90;;;;;;4994370;28;88147;-34
2022/08/16 05:59:53;;;;;;;25.42;22.23;;;20.50;99.90;;;;;;4997731;28;90120;-33
2022/08/16 06:02:20;;;;;;;22.83;19.77;;;20.60;99.90;;;;;;4988404;28;90620;-35
2022/08/16 06:04:46;;;;;;;24.92;21.42;;;20.70;99.90;;;;;;4997391;28;90581;-31
2022/08/16 06:07:12;;;;;;;23.85;19.27;;;20.70;99.90;;;;;;4997182;28;89524;-35
2022/08/16 06:09:38;;;;;;;22.20;18.63;;;20.80;99.90;;;;;;4984473;28;90124;-35
2022/08/16 06:12:04;;;;;;;28.23;20.20;;;20.90;99.90;;;;;;4995730;28;89740;-35
2022/08/16 06:14:30;;;;;;;21.05;18.42;;;20.90;99.90;;;;;;4997309;28;89604;-31
2022/08/16 06:16:56;;;;;;;21.58;19.10;;;21.00;99.90;;;;;;4996511;28;88927;-35
2022/08/16 06:19:22;;;;;;;19.30;16.63;;;21.00;99.90;;;;;;4997549;28;90651;-32
2022/08/16 06:21:48;;;;;;;22.10;17.73;;;21.10;99.90;;;;;;4996536;28;89563;-33
2022/08/16 06:24:14;;;;;;;20.20;18.13;;;21.20;99.90;;;;;;4996427;28;89730;-33
2022/08/16 06:26:39;;;;;;;20.38;18.13;;;21.30;99.90;;;;;;4996812;28;89031;-35
2022/08/16 06:29:05;;;;;;;24.80;20.23;;;21.40;99.90;;;;;;4996615;28;90567;-32
2022/08/16 06:31:31;;;;;;;22.42;18.27;;;21.60;99.90;;;;;;4996687;28;88981;-33
2022/08/16 06:33:57;;;;;;;26.88;18.52;;;21.70;99.90;;;;;;4997140;28;90268;-35
2022/08/16 06:36:23;;;;;;;21.65;19.08;;;21.90;99.90;;;;;;4996381;28;88836;-33
2022/08/16 06:38:49;;;;;;;26.88;21.35;;;22.00;99.90;;;;;;4997148;28;90488;-35
2022/08/16 06:41:15;;;;;;;24.40;21.73;;;22.10;99.90;;;;;;4995215;28;90703;-34
2022/08/16 06:43:41;;;;;;;21.10;17.33;;;22.20;99.90;;;;;;4996281;28;89662;-34
2022/08/16 06:46:19;;;;;;;21.63;18.17;;;22.30;99.90;;;;;;4996851;28;88855;-32
2022/08/16 06:48:45;;;;;;;23.50;17.55;;;22.30;99.90;;;;;;4996726;28;90471;-33
2022/08/16 06:51:11;;;;;;;21.85;17.63;;;22.40;99.90;;;;;;4996078;28;91186;-36
2022/08/16 06:53:37;;;;;;;21.83;16.75;;;22.50;99.90;;;;;;4997540;28;89972;-31
2022/08/16 06:56:05;;;;;;;20.77;17.10;;;22.60;99.90;;;;;;4996576;28;89087;-36
2022/08/16 06:58:32;;;;;;;19.52;17.27;;;22.70;99.90;;;;;;4996639;28;89483;-35
2022/08/16 07:01:02;;;;;;;17.55;15.82;;;22.80;99.90;;;;;;4997063;28;89650;-36
2022/08/16 07:03:29;;;;;;;24.27;16.20;;;23.00;99.90;;;;;;4996704;28;89782;-33
2022/08/16 07:05:55;;;;;;;20.30;15.93;;;23.20;99.90;;;;;;4996774;28;89750;-32
2022/08/16 07:08:22;;;;;;;22.48;17.10;;;23.40;99.90;;;;;;4996664;28;90065;-35
2022/08/16 07:10:48;;;;;;;17.20;15.55;;;23.50;99.90;;;;;;4996936;28;89554;-34
2022/08/16 07:13:15;;;;;;;21.15;16.20;;;23.70;99.90;;;;;;4997044;28;89883;-35
2022/08/16 07:15:41;;;;;;;24.00;16.35;;;23.80;99.90;;;;;;4995769;28;90046;-34
2022/08/16 07:18:07;;;;;;;18.33;14.35;;;24.00;99.90;;;;;;4996257;28;90303;-35
2022/08/16 07:20:33;;;;;;;17.88;15.57;;;24.20;99.90;;;;;;4995621;28;90178;-34
2022/08/16 07:22:59;;;;;;;17.25;15.55;;;24.40;99.90;;;;;;4996302;28;89601;-33
2022/08/16 07:25:24;;;;;;;17.38;15.23;;;24.40;99.90;;;;;;4997820;28;87961;-34
2022/08/16 07:27:50;;;;;;;15.77;14.18;;;24.50;99.90;;;;;;5001725;28;90505;-35
2022/08/16 07:30:17;;;;;;;20.42;15.73;;;24.50;99.90;;;;;;4996492;28;89067;-32
2022/08/16 07:32:43;;;;;;;16.55;14.95;;;24.60;99.90;;;;;;4995698;28;89210;-36
2022/08/16 07:35:09;;;;;;;22.55;16.25;;;24.70;99.90;;;;;;4995829;28;89826;-32
2022/08/16 07:37:34;;;;;;;16.02;14.32;;;24.70;99.90;;;;;;4995961;28;90888;-34
2022/08/16 07:40:01;;;;;;;32.90;16.33;;;24.80;99.90;;;;;;4995363;28;90403;-32
2022/08/16 07:42:26;;;;;;;26.55;15.70;;;24.90;99.90;;;;;;4995657;28;88928;-34
2022/08/16 07:44:52;;;;;;;18.10;16.13;;;25.00;99.90;;;;;;4996450;28;88646;-33
2022/08/16 07:47:18;;;;;;;20.95;14.95;;;25.10;99.90;;;;;;4994888;28;90296;-32
2022/08/16 07:49:44;;;;;;;19.38;16.65;;;25.20;99.90;;;;;;4995891;28;89496;-33
2022/08/16 07:52:10;;;;;;;18.45;15.38;;;25.20;99.90;;;;;;4995373;28;90599;-35
2022/08/16 07:54:35;;;;;;;19.25;16.63;;;25.30;99.90;;;;;;4996359;28;88865;-35
2022/08/16 07:57:01;;;;;;;18.65;16.00;;;25.40;99.90;;;;;;4995802;28;90211;-32
2022/08/16 07:59:26;;;;;;;21.70;18.38;;;25.60;99.90;;;;;;4995626;28;90029;-34
2022/08/16 08:01:53;;;;;;;18.45;16.65;;;25.80;99.90;;;;;;4995821;28;89528;-32
2022/08/16 08:04:19;;;;;;;18.83;16.85;;;25.80;99.90;;;;;;4994537;28;90177;-34
2022/08/16 08:06:45;;;;;;;19.50;17.05;;;25.90;99.90;;;;;;4995347;28;90221;-31
2022/08/16 08:09:11;;;;;;;16.90;14.23;;;26.00;99.90;;;;;;4994703;28;89529;-33
2022/08/16 08:11:37;;;;;;;17.27;15.57;;;26.10;99.90;;;;;;4995652;28;89644;-35
2022/08/16 08:14:03;;;;;;;17.42;14.57;;;26.30;99.90;;;;;;4996234;28;89225;-33
2022/08/16 08:16:30;;;;;;;16.77;14.82;;;26.40;99.90;;;;;;4994696;28;92101;-33
2022/08/16 08:18:55;;;;;;;18.88;16.00;;;26.50;99.90;;;;;;4995872;28;90359;-35
2022/08/16 08:21:23;;;;;;;17.85;15.40;;;26.60;99.90;;;;;;4995684;28;89829;-35
2022/08/16 08:23:49;;;;;;;16.83;15.05;;;26.70;99.90;;;;;;4994605;28;89494;-34
2022/08/16 08:26:16;;;;;;;16.83;14.48;;;26.70;99.90;;;;;;4993749;28;90549;-33
2022/08/16 08:28:42;;;;;;;14.85;12.13;;;26.70;99.90;;;;;;4995681;28;89656;-36
2022/08/16 08:31:08;;;;;;;13.98;12.65;;;26.70;99.90;;;;;;4994687;28;90399;-34
2022/08/16 08:33:35;;;;;;;13.75;12.38;;;26.70;99.90;;;;;;4994701;28;89935;-35
2022/08/16 08:36:04;;;;;;;13.70;12.35;;;26.80;99.90;;;;;;4995214;28;89954;-34
2022/08/16 08:38:30;;;;;;;14.85;13.38;;;26.90;99.90;;;;;;4996612;28;90123;-35
2022/08/16 08:40:56;;;;;;;15.57;13.23;;;27.00;99.90;;;;;;4998876;28;90208;-34
2022/08/16 08:43:21;;;;;;;13.25;11.88;;;27.10;99.90;;;;;;4998778;28;89471;-32
2022/08/16 08:45:47;;;;;;;14.60;12.70;;;27.20;99.90;;;;;;4998348;28;90109;-33
2022/08/16 08:48:13;;;;;;;14.00;12.52;;;27.30;99.90;;;;;;4997707;28;89561;-35
2022/08/16 08:50:41;;;;;;;16.02;13.07;;;27.40;99.90;;;;;;4998719;28;88774;-35
2022/08/16 08:53:07;;;;;;;18.70;13.77;;;27.40;99.90;;;;;;4998236;28;89831;-35
2022/08/16 08:55:33;;;;;;;16.45;14.68;;;27.40;99.90;;;;;;4998246;28;90557;-34
2022/08/16 08:57:58;;;;;;;13.52;12.27;;;27.30;99.90;;;;;;4998614;28;88435;-35
2022/08/16 09:00:26;;;;;;;15.25;13.85;;;27.30;99.90;;;;;;4998347;28;89963;-34
2022/08/16 09:02:52;;;;;;;;;;;27.40;99.90;;;;;;4998811;28;89493;-35
2022/08/16 09:05:20;;;;;;;13.35;11.95;;;27.40;99.90;;;;;;5000414;28;90825;-32
2022/08/16 09:07:46;;;;;;;13.43;12.05;;;27.40;99.90;;;;;;4997653;28;92117;-34
2022/08/16 09:10:12;;;;;;;15.80;13.10;;;27.40;99.90;;;;;;4998036;28;89994;-34
2022/08/16 09:12:38;;;;;;;12.38;11.20;;;27.60;99.90;;;;;;4998646;28;88847;-35
2022/08/16 09:15:06;;;;;;;13.48;12.27;;;27.60;99.90;;;;;;4998494;28;89928;-34
2022/08/16 09:17:32;;;;;;;16.70;12.20;;;27.60;99.90;;;;;;4997546;28;90750;-32
2022/08/16 09:19:57;;;;;;;16.05;14.55;;;27.70;99.90;;;;;;4998338;28;91016;-32
2022/08/16 09:22:24;;;;;;;15.15;13.70;;;27.70;99.90;;;;;;4997891;28;90263;-33
2022/08/16 09:24:51;;;;;;;20.40;13.20;;;27.60;99.90;;;;;;4997402;28;90812;-35
2022/08/16 09:27:17;;;;;;;17.77;15.85;;;27.70;99.90;;;;;;4997948;28;89264;-33
2022/08/16 09:29:43;;;;;;;14.65;13.23;;;27.80;99.90;;;;;;4997121;28;89601;-34
2022/08/16 09:32:09;;;;;;;15.95;13.10;;;27.90;99.90;;;;;;4998030;28;89400;-36
2022/08/16 09:34:34;;;;;;;14.13;12.57;;;28.00;99.90;;;;;;4997479;28;92125;-35
2022/08/16 09:37:00;;;;;;;14.20;12.55;;;28.00;99.90;;;;;;4997701;28;89950;-33
2022/08/16 09:39:26;;;;;;;15.43;13.02;;;28.10;99.90;;;;;;4998312;28;89778;-33
2022/08/16 09:41:55;;;;;;;14.80;12.30;;;28.20;99.90;;;;;;4996528;28;89613;-33
2022/08/16 09:44:25;;;;;;;15.20;13.63;;;28.30;99.90;;;;;;4997649;28;89768;-33
2022/08/16 09:46:52;;;;;;;13.05;10.50;;;28.40;99.90;;;;;;4997432;28;91231;-34
2022/08/16 09:49:19;;;;;;;12.07;10.88;;;28.50;99.90;;;;;;4997372;28;89413;-35
2022/08/16 09:51:45;;;;;;;50.75;17.50;;;28.70;99.60;;;;;;4997835;28;87940;-34
2022/08/16 09:54:11;;;;;;;13.20;12.00;;;28.80;97.90;;;;;;4997469;28;90075;-35
2022/08/16 09:56:39;;;;;;;16.93;15.13;;;28.80;99.10;;;;;;4997565;28;90880;-33
2022/08/16 09:59:07;;;;;;;13.52;9.70;;;28.70;99.30;;;;;;4998073;28;89435;-32
2022/08/16 10:01:35;;;;;;;13.55;10.40;;;28.70;99.10;;;;;;4990545;28;88228;-33
2022/08/16 10:04:00;;;;;;;11.60;10.48;;;28.80;99.90;;;;;;4991214;28;92495;-33
2022/08/16 10:06:27;;;;;;;12.48;11.23;;;29.00;99.60;;;;;;4996455;28;91683;-34
2022/08/16 10:08:52;;;;;;;13.05;10.65;;;29.20;97.60;;;;;;4997887;28;90600;-34
2022/08/16 10:14:02;;;;;;;9.02;8.20;;;29.30;94.50;;;;;;4997618;28;89619;-34
2022/08/16 10:16:29;;;;;;;12.02;10.80;;;29.30;91.30;;;;;;4995709;28;90173;-35
2022/08/16 10:18:54;;;;;;;8.77;7.97;;;29.30;87.60;;;;;;4997472;28;88802;-32
2022/08/16 10:21:21;;;;;;;9.75;8.00;;;29.20;86.00;;;;;;4998724;28;89835;-32
2022/08/16 10:23:48;;;;;;;8.98;8.00;;;29.20;83.60;;;;;;4997340;28;90299;-34
2022/08/16 10:26:15;;;;;;;8.27;7.47;;;29.20;78.40;;;;;;4998439;28;89672;-33
2022/08/16 10:28:41;;;;;;;8.50;7.80;;;29.30;79.90;;;;;;4997894;28;89999;-35
2022/08/16 10:31:07;;;;;;;8.27;7.45;;;29.50;79.30;;;;;;4997122;28;89002;-34
2022/08/16 10:33:33;;;;;;;9.47;8.43;;;29.70;73.30;;;;;;4997418;28;90222;-33
2022/08/16 10:36:03;;;;;;;7.32;6.32;;;29.70;70.10;;;;;;4997569;28;89914;-33
2022/08/16 10:38:28;;;;;;;8.88;7.95;;;29.70;70.40;;;;;;4997344;28;89595;-33
2022/08/16 10:40:54;;;;;;;8.30;7.45;;;29.60;69.30;;;;;;4998022;28;88366;-34
2022/08/16 10:43:20;;;;;;;9.35;8.55;;;29.70;70.40;;;;;;4997134;28;90476;-33
2022/08/16 10:45:47;;;;;;;9.07;8.30;;;29.60;69.50;;;;;;4996941;28;90024;-33
2022/08/16 10:48:13;;;;;;;10.35;7.95;;;29.60;69.90;;;;;;4997130;28;90109;-37
2022/08/16 10:50:39;;;;;;;8.50;7.80;;;29.50;69.00;;;;;;4997857;28;88861;-35
2022/08/16 10:53:05;;;;;;;7.50;6.90;;;29.50;69.80;;;;;;4997124;28;90797;-34
2022/08/16 10:55:39;;;;;;;8.57;7.13;;;29.60;68.60;;;;;;4997595;28;90867;-37
2022/08/16 10:58:07;;;;;;;7.20;6.50;;;29.70;68.00;;;;;;4999546;28;90179;-32
2022/08/16 11:00:37;;;;;;;7.07;6.05;;;29.70;65.10;;;;;;4998980;28;89529;-33
2022/08/16 11:03:03;;;;;;;7.05;6.35;;;29.80;62.30;;;;;;4984998;28;89190;-33
2022/08/16 11:05:31;;;;;;;8.30;7.03;;;29.70;61.50;;;;;;4999382;28;89594;-35
2022/08/16 11:07:57;;;;;;;7.90;7.20;;;29.60;61.10;;;;;;4999400;28;89020;-35
2022/08/16 11:10:30;;;;;;;6.18;5.78;;;29.40;62.20;;;;;;4999110;28;89913;-34
2022/08/16 11:12:56;;;;;;;10.60;7.07;;;29.50;61.60;;;;;;4999190;28;90331;-40
2022/08/16 11:15:22;;;;;;;12.88;6.25;;;29.50;61.90;;;;;;4997019;28;92602;-34
2022/08/16 11:17:50;;;;;;;7.47;6.88;;;29.50;61.80;;;;;;4999007;28;89925;-36
2022/08/16 11:20:16;;;;;;;;;;;29.50;61.50;;;;;;4999889;28;89000;-35
2022/08/16 11:22:43;;;;;;;7.03;6.40;;;29.50;62.10;;;;;;4998904;28;90252;-33
2022/08/16 11:25:11;;;;;;;6.75;6.20;;;29.40;61.40;;;;;;4997790;28;90381;-35
2022/08/16 11:27:37;;;;;;;;;;;29.50;60.70;;;;;;4999246;28;89954;-32
2022/08/16 11:30:04;;;;;;;16.63;8.02;;;29.40;61.80;;;;;;5001098;28;88749;-34
2022/08/16 11:32:30;;;;;;;8.30;7.22;;;29.50;61.70;;;;;;4998593;28;91049;-35
2022/08/16 11:34:56;;;;;;;8.68;7.95;;;29.60;62.30;;;;;;4998515;28;90343;-35
2022/08/16 11:37:22;;;;;;;8.30;7.47;;;29.60;61.30;;;;;;4998606;28;89538;-34
2022/08/16 11:39:48;;;;;;;10.07;7.95;;;29.50;61.40;;;;;;4998477;28;89594;-34
2022/08/16 11:42:14;;;;;;;9.15;7.20;;;29.50;62.70;;;;;;4999179;28;90504;-34
2022/08/16 11:44:40;;;;;;;7.60;7.00;;;29.50;62.20;;;;;;4998489;28;90868;-35
2022/08/16 11:47:05;;;;;;;7.00;6.43;;;29.60;60.70;;;;;;4998596;28;91553;-32
2022/08/16 11:49:31;;;;;;;8.30;6.25;;;29.70;60.90;;;;;;4998742;28;89808;-33
2022/08/16 11:51:57;;;;;;;7.40;6.55;;;29.80;60.40;;;;;;4998762;28;89221;-34
2022/08/16 11:54:22;;;;;;;8.30;7.32;;;29.70;60.30;;;;;;4998876;28;89298;-35
2022/08/16 11:56:49;;;;;;;6.18;5.68;;;29.90;59.90;;;;;;4998077;28;89992;-34
2022/08/16 11:59:15;;;;;;;6.70;5.93;;;29.90;59.70;;;;;;4998766;28;88222;-36
2022/08/16 12:01:41;;;;;;;7.65;6.85;;;30.00;58.90;;;;;;4998255;28;90504;-33
2022/08/16 12:04:07;;;;;;;7.75;7.05;;;30.10;58.60;;;;;;4996430;28;89081;-36
2022/08/16 12:06:33;;;;;;;8.50;7.72;;;30.20;58.60;;;;;;4998478;28;89572;-33
2022/08/16 12:08:59;;;;;;;7.15;6.55;;;30.30;58.80;;;;;;4996517;28;90369;-35
2022/08/16 12:11:25;;;;;;;6.50;6.00;;;30.30;59.20;;;;;;4998606;28;89552;-32
2022/08/16 12:13:52;;;;;;;8.10;7.43;;;30.30;58.10;;;;;;5000768;28;89817;-34
2022/08/16 12:16:19;;;;;;;8.30;7.50;;;30.30;58.60;;;;;;5001380;28;89293;-33
2022/08/16 12:18:45;;;;;;;7.57;7.00;;;30.30;58.60;;;;;;5002302;28;88050;-34
2022/08/16 12:21:11;;;;;;;7.35;6.68;;;30.30;58.30;;;;;;5002529;28;90577;-36
2022/08/16 12:23:37;;;;;;;7.72;7.13;;;30.20;57.80;;;;;;5040358;22;89932;-32
2022/08/16 12:26:03;;;;;;;10.07;5.95;;;30.20;58.20;;;;;;5000982;28;89230;-34
2022/08/16 12:28:30;;;;;;;6.93;6.28;;;30.20;57.80;;;;;;5000945;28;88504;-35
2022/08/16 12:30:56;;;;;;;9.02;7.28;;;30.30;57.10;;;;;;5001673;28;90838;-34
2022/08/16 12:33:22;;;;;;;7.47;6.72;;;30.40;57.30;;;;;;5001053;28;90927;-34